createdAt,value
2023-02-18T00:01:41.506Z,10.89
2023-02-18T00:04:10.969Z,10.87
2023-02-18T00:06:39.325Z,10.87
2023-02-18T00:09:09.157Z,10.87
2023-02-18T00:11:39.044Z,10.91
2023-02-18T00:14:14.427Z,10.93
2023-02-18T00:16:43.420Z,10.93
2023-02-18T00:19:15.055Z,10.90
2023-02-18T00:21:43.306Z,10.91
2023-02-18T00:24:15.988Z,10.90
2023-02-18T00:26:45.126Z,10.90
2023-02-18T00:29:15.906Z,10.90
2023-02-18T00:31:44.383Z,10.90
2023-02-18T00:34:15.555Z,10.86
2023-02-18T00:36:43.940Z,10.83
2023-02-18T00:39:14.188Z,10.86
2023-02-18T00:41:42.748Z,10.81
2023-02-18T00:44:11.655Z,10.78
2023-02-18T00:46:40.118Z,10.72
2023-02-18T00:49:11.249Z,10.71
2023-02-18T00:51:39.752Z,10.73
2023-02-18T00:54:09.107Z,10.73
2023-02-18T00:56:41.161Z,10.70
2023-02-18T00:59:12.265Z,10.64
2023-02-18T01:01:40.566Z,10.62
2023-02-18T01:05:30.092Z,10.56
2023-02-18T01:07:58.271Z,10.52
2023-02-18T01:10:26.518Z,10.50
2023-02-18T01:12:54.849Z,10.53
2023-02-18T01:15:23.670Z,10.57
2023-02-18T01:17:51.861Z,10.54
2023-02-18T01:20:21.266Z,10.52
2023-02-18T01:22:50.868Z,10.55
2023-02-18T01:25:19.262Z,10.54
2023-02-18T01:27:47.399Z,10.52
2023-02-18T01:30:17.713Z,10.45
2023-02-18T01:32:46.662Z,10.26
2023-02-18T01:35:17.852Z,10.47
2023-02-18T01:37:46.327Z,10.47
2023-02-18T01:40:21.136Z,10.47
2023-02-18T01:42:49.568Z,10.51
2023-02-18T01:45:59.736Z,10.48
2023-02-18T01:48:31.190Z,10.50
2023-02-18T01:51:04.790Z,10.59
2023-02-18T01:53:38.429Z,10.59
2023-02-18T01:56:12.364Z,10.57
2023-02-18T01:58:41.151Z,10.59
2023-02-18T02:01:10.735Z,10.53
2023-02-18T02:03:38.862Z,10.50
2023-02-18T02:06:15.256Z,10.48
2023-02-18T02:08:44.832Z,10.44
2023-02-18T02:11:25.735Z,10.42
2023-02-18T02:14:08.641Z,10.38
2023-02-18T02:16:43.681Z,10.36
2023-02-18T02:19:40.518Z,10.29
2023-02-18T02:22:41.985Z,10.21
2023-02-18T02:25:21.130Z,10.18
2023-02-18T02:28:30.807Z,10.26
2023-02-18T02:31:33.966Z,10.24
2023-02-18T02:34:28.850Z,10.24
2023-02-18T02:37:03.219Z,10.24
2023-02-18T02:39:39.945Z,10.24
2023-02-18T02:42:20.590Z,10.27
2023-02-18T02:44:56.805Z,10.28
2023-02-18T02:47:34.065Z,10.26
2023-02-18T02:50:07.869Z,10.26
2023-02-18T02:52:42.394Z,10.24
2023-02-18T02:55:12.024Z,10.23
2023-02-18T02:57:46.756Z,10.17
2023-02-18T03:00:24.528Z,10.13
2023-02-18T03:03:26.060Z,10.17
2023-02-18T03:06:12.196Z,10.12
2023-02-18T03:08:53.144Z,10.10
2023-02-18T03:11:24.914Z,10.12
2023-02-18T03:14:02.829Z,10.06
2023-02-18T03:16:41.020Z,10.05
2023-02-18T03:19:19.897Z,10.05
2023-02-18T03:21:55.004Z,9.97
2023-02-18T03:24:28.140Z,9.91
2023-02-18T03:27:05.520Z,9.84
2023-02-18T03:29:34.710Z,9.82
2023-02-18T03:32:07.807Z,9.87
2023-02-18T03:34:40.486Z,9.90
2023-02-18T03:37:15.849Z,9.95
2023-02-18T03:39:49.201Z,10.01
2023-02-18T03:42:19.954Z,9.97
2023-02-18T03:44:51.397Z,10.03
2023-02-18T03:47:19.685Z,10.15
2023-02-18T03:49:49.556Z,10.15
2023-02-18T03:52:19.488Z,10.19
2023-02-18T03:54:50.767Z,10.27
2023-02-18T03:57:18.836Z,10.21
2023-02-18T03:59:47.375Z,10.21
2023-02-18T04:02:15.438Z,10.12
2023-02-18T04:04:43.411Z,10.09
2023-02-18T04:07:11.639Z,10.09
2023-02-18T04:09:41.035Z,10.05
2023-02-18T04:12:09.179Z,10.03
2023-02-18T04:14:37.403Z,10.06
2023-02-18T04:17:05.472Z,10.01
2023-02-18T04:19:33.545Z,9.98
2023-02-18T04:22:04.435Z,9.95
2023-02-18T04:24:32.502Z,9.93
2023-02-18T04:27:02.014Z,9.90
2023-02-18T04:29:30.420Z,9.83
2023-02-18T04:31:58.547Z,9.82
2023-02-18T04:34:26.629Z,9.81
2023-02-18T04:36:54.846Z,9.88
2023-02-18T04:39:22.888Z,9.89
2023-02-18T04:41:53.339Z,9.78
2023-02-18T04:44:22.962Z,9.82
2023-02-18T04:46:51.028Z,9.80
2023-02-18T04:49:19.003Z,9.86
2023-02-18T04:51:47.160Z,9.94
2023-02-18T04:54:15.174Z,9.97
2023-02-18T04:56:43.320Z,9.95
2023-02-18T04:59:11.757Z,10.00
2023-02-18T05:01:41.343Z,9.99
2023-02-18T05:04:09.586Z,9.97
2023-02-18T05:06:39.690Z,9.91
2023-02-18T05:09:07.958Z,9.84
2023-02-18T05:11:36.028Z,9.74
2023-02-18T05:14:04.454Z,9.82
2023-02-18T05:16:33.201Z,9.87
2023-02-18T05:19:02.614Z,9.83
2023-02-18T05:21:51.728Z,9.88
2023-02-18T05:24:20.250Z,9.85
2023-02-18T05:26:48.267Z,9.84
2023-02-18T05:29:16.566Z,9.95
2023-02-18T05:31:47.676Z,9.97
2023-02-18T05:34:17.520Z,9.98
2023-02-18T05:36:45.608Z,9.95
2023-02-18T05:39:13.577Z,9.97
2023-02-18T05:41:41.773Z,9.95
2023-02-18T05:44:29.553Z,10.02
2023-02-18T05:46:57.851Z,10.09
2023-02-18T05:49:27.588Z,10.10
2023-02-18T05:51:55.704Z,10.06
2023-02-18T05:54:24.635Z,10.05
2023-02-18T05:56:53.169Z,10.05
2023-02-18T05:59:21.569Z,9.97
2023-02-18T06:01:50.688Z,9.92
2023-02-18T06:06:29.665Z,9.88
2023-02-18T06:08:57.973Z,9.94
2023-02-18T06:11:26.013Z,9.99
2023-02-18T06:13:56.329Z,10.00
2023-02-18T06:16:24.786Z,9.96
2023-02-18T06:18:52.795Z,10.03
2023-02-18T06:21:21.066Z,10.03
2023-02-18T06:23:53.727Z,10.00
2023-02-18T06:26:21.841Z,9.98
2023-02-18T06:28:50.029Z,10.01
2023-02-18T06:31:20.852Z,9.94
2023-02-18T06:33:48.897Z,9.89
2023-02-18T06:36:17.192Z,9.89
2023-02-18T06:38:46.365Z,10.01
2023-02-18T06:41:15.820Z,9.96
2023-02-18T06:43:43.838Z,9.90
2023-02-18T06:46:12.353Z,9.95
2023-02-18T06:48:42.426Z,9.96
2023-02-18T06:51:10.444Z,9.97
2023-02-18T06:53:38.625Z,9.94
2023-02-18T06:56:09.639Z,10.00
2023-02-18T06:58:39.631Z,10.05
2023-02-18T07:01:07.795Z,10.06
2023-02-18T07:03:36.553Z,10.09
2023-02-18T07:06:07.869Z,10.13
2023-02-18T07:08:39.088Z,10.16
2023-02-18T07:11:08.234Z,10.19
2023-02-18T07:13:36.320Z,10.24
2023-02-18T07:16:08.913Z,10.17
2023-02-18T07:18:39.400Z,10.19
2023-02-18T07:21:08.207Z,10.26
2023-02-18T07:23:38.546Z,10.29
2023-02-18T07:26:09.790Z,10.32
2023-02-18T07:28:38.630Z,10.47
2023-02-18T07:31:11.263Z,10.50
2023-02-18T07:33:41.919Z,10.52
2023-02-18T07:36:11.045Z,10.56
2023-02-18T07:38:40.869Z,10.64
2023-02-18T07:41:18.100Z,10.61
2023-02-18T07:43:46.353Z,10.72
2023-02-18T07:46:16.574Z,10.73
2023-02-18T07:48:46.940Z,10.74
2023-02-18T07:51:15.073Z,10.70
2023-02-18T07:53:43.646Z,10.70
2023-02-18T07:56:12.051Z,10.68
2023-02-18T07:58:40.675Z,10.71
2023-02-18T08:01:10.707Z,10.71
2023-02-18T08:03:40.318Z,10.65
2023-02-18T08:06:09.355Z,10.78
2023-02-18T08:08:37.691Z,10.73
2023-02-18T08:11:18.049Z,10.80
2023-02-18T08:13:47.433Z,10.81
2023-02-18T08:16:19.529Z,10.79
2023-02-18T08:18:52.324Z,10.96
2023-02-18T08:21:21.801Z,10.91
2023-02-18T08:23:50.946Z,11.12
2023-02-18T08:26:19.639Z,11.11
2023-02-18T08:28:50.715Z,11.19
2023-02-18T08:31:21.225Z,11.17
2023-02-18T08:33:53.841Z,11.25
2023-02-18T08:36:22.350Z,11.24
2023-02-18T08:38:50.541Z,11.18
2023-02-18T08:41:19.781Z,11.19
2023-02-18T08:43:49.027Z,11.33
2023-02-18T08:46:25.082Z,11.31
2023-02-18T08:49:05.731Z,11.29
2023-02-18T08:51:34.510Z,11.32
2023-02-18T08:54:02.887Z,11.40
2023-02-18T08:56:34.007Z,11.38
2023-02-18T08:59:03.329Z,11.39
2023-02-18T09:01:31.628Z,11.49
2023-02-18T09:04:02.273Z,11.64
2023-02-18T09:06:37.768Z,11.59
2023-02-18T09:09:08.637Z,11.72
2023-02-18T09:11:37.502Z,11.88
2023-02-18T09:14:05.798Z,12.14
2023-02-18T09:16:38.514Z,12.21
2023-02-18T09:19:09.563Z,12.30
2023-02-18T09:21:41.246Z,12.49
2023-02-18T09:24:09.733Z,12.34
2023-02-18T09:26:37.754Z,12.33
2023-02-18T09:29:06.005Z,12.65
2023-02-18T09:31:52.122Z,12.36
2023-02-18T09:34:25.027Z,12.50
2023-02-18T09:36:54.474Z,12.45
2023-02-18T09:39:22.706Z,12.39
2023-02-18T09:41:54.024Z,12.16
2023-02-18T09:44:26.497Z,12.15
2023-02-18T09:46:58.860Z,12.15
2023-02-18T09:49:28.899Z,12.10
2023-02-18T09:52:01.566Z,12.01
2023-02-18T09:54:29.643Z,11.86
2023-02-18T09:56:57.991Z,11.80
2023-02-18T09:59:29.629Z,11.74
2023-02-18T10:02:02.018Z,11.75
2023-02-18T10:04:38.740Z,11.73
2023-02-18T10:07:22.062Z,11.91
2023-02-18T10:09:52.231Z,12.00
2023-02-18T10:12:22.647Z,12.11
2023-02-18T10:14:55.147Z,12.16
2023-02-18T10:17:26.247Z,12.34
2023-02-18T10:19:57.082Z,12.43
2023-02-18T10:22:28.028Z,12.52
2023-02-18T10:24:59.675Z,12.30
2023-02-18T10:27:29.271Z,12.44
2023-02-18T10:30:03.914Z,12.35
2023-02-18T10:32:37.655Z,12.27
2023-02-18T10:35:17.544Z,12.08
2023-02-18T10:38:03.415Z,11.94
2023-02-18T10:40:44.032Z,11.91
2023-02-18T10:43:22.828Z,11.90
2023-02-18T10:45:58.340Z,11.81
2023-02-18T10:48:43.553Z,11.77
2023-02-18T10:51:18.652Z,11.75
2023-02-18T10:53:50.639Z,11.86
2023-02-18T10:56:36.350Z,11.79
2023-02-18T10:59:12.258Z,11.93
2023-02-18T11:01:45.145Z,12.00
2023-02-18T11:07:38.833Z,12.32
2023-02-18T11:10:16.384Z,12.36
2023-02-18T11:12:49.073Z,12.31
2023-02-18T11:15:21.710Z,12.31
2023-02-18T11:17:54.123Z,12.31
2023-02-18T11:20:29.784Z,12.28
2023-02-18T11:23:20.469Z,12.32
2023-02-18T11:25:58.916Z,12.32
2023-02-18T11:28:45.038Z,12.43
2023-02-18T11:31:23.334Z,12.45
2023-02-18T11:33:54.295Z,12.65
2023-02-18T11:36:29.075Z,13.04
2023-02-18T11:39:01.131Z,12.85
2023-02-18T11:41:36.515Z,12.90
2023-02-18T11:44:08.678Z,12.81
2023-02-18T11:46:36.834Z,13.04
2023-02-18T11:49:22.988Z,12.83
2023-02-18T11:51:51.647Z,12.95
2023-02-18T11:54:28.084Z,12.90
2023-02-18T11:56:58.802Z,12.75
2023-02-18T11:59:28.920Z,12.70
2023-02-18T12:02:03.664Z,12.58
2023-02-18T12:04:38.456Z,12.53
2023-02-18T12:07:16.395Z,12.61
2023-02-18T12:09:50.702Z,12.53
2023-02-18T12:12:25.927Z,12.34
2023-02-18T12:14:57.420Z,12.27
2023-02-18T12:17:46.797Z,12.10
2023-02-18T12:20:28.474Z,12.08
2023-02-18T12:23:07.874Z,12.17
2023-02-18T12:25:45.398Z,12.01
2023-02-18T12:28:36.041Z,12.18
2023-02-18T12:31:14.918Z,12.32
2023-02-18T12:34:01.570Z,12.20
2023-02-18T12:36:43.152Z,12.09
2023-02-18T12:39:19.713Z,12.07
2023-02-18T12:42:14.902Z,12.24
2023-02-18T12:44:50.401Z,12.18
2023-02-18T12:47:37.717Z,12.25
2023-02-18T12:50:31.349Z,12.19
2023-02-18T12:53:26.840Z,12.15
2023-02-18T12:56:11.961Z,12.08
2023-02-18T12:58:55.900Z,12.05
2023-02-18T13:01:35.056Z,12.04
2023-02-18T13:04:27.018Z,12.07
2023-02-18T13:07:38.674Z,12.06
2023-02-18T13:10:45.847Z,12.09
2023-02-18T13:13:18.423Z,12.01
2023-02-18T13:15:54.161Z,12.07
2023-02-18T13:18:29.211Z,12.00
2023-02-18T13:21:01.967Z,12.00
2023-02-18T13:23:34.520Z,11.98
2023-02-18T13:26:06.231Z,11.92
2023-02-18T13:28:41.554Z,11.89
2023-02-18T13:31:24.198Z,11.89
2023-02-18T13:33:58.684Z,11.88
2023-02-18T13:36:42.567Z,11.82
2023-02-18T13:39:19.329Z,11.93
2023-02-18T13:41:50.173Z,11.95
2023-02-18T13:45:04.084Z,11.93
2023-02-18T13:47:42.948Z,11.98
2023-02-18T13:50:25.521Z,11.96
2023-02-18T13:53:21.677Z,11.99
2023-02-18T13:55:56.880Z,12.01
2023-02-18T13:58:31.552Z,12.06
2023-02-18T14:01:05.402Z,12.05
2023-02-18T14:03:53.972Z,12.12
2023-02-18T14:06:24.501Z,12.14
2023-02-18T14:08:53.418Z,12.20
2023-02-18T14:11:47.765Z,12.22
2023-02-18T14:14:39.609Z,12.23
2023-02-18T14:17:31.827Z,12.20
2023-02-18T14:20:37.686Z,12.16
2023-02-18T14:23:33.686Z,12.12
2023-02-18T14:26:08.411Z,12.16
2023-02-18T14:28:41.559Z,12.11
2023-02-18T14:31:30.052Z,12.05
2023-02-18T14:34:41.415Z,11.94
2023-02-18T14:37:45.095Z,11.94
2023-02-18T14:40:44.155Z,11.94
2023-02-18T14:43:29.307Z,11.88
2023-02-18T14:46:10.994Z,11.86
2023-02-18T14:49:19.532Z,11.81
2023-02-18T14:51:49.338Z,11.79
2023-02-18T14:54:20.840Z,11.75
2023-02-18T14:56:57.214Z,11.62
2023-02-18T14:59:29.033Z,11.59
2023-02-18T15:01:59.711Z,11.56
2023-02-18T15:04:28.746Z,11.56
2023-02-18T15:07:03.070Z,11.52
2023-02-18T15:09:32.582Z,11.54
2023-02-18T15:12:07.088Z,11.54
2023-02-18T15:14:39.835Z,11.59
2023-02-18T15:17:14.538Z,11.45
2023-02-18T15:19:46.081Z,11.36
2023-02-18T15:22:19.917Z,11.37
2023-02-18T15:24:50.124Z,11.33
2023-02-18T15:27:22.587Z,11.30
2023-02-18T15:29:52.879Z,11.22
2023-02-18T15:32:24.057Z,11.26
2023-02-18T15:34:54.484Z,11.19
2023-02-18T15:37:23.105Z,11.15
2023-02-18T15:39:52.348Z,11.16
2023-02-18T15:42:28.098Z,11.08
2023-02-18T15:45:02.364Z,11.03
2023-02-18T15:47:32.432Z,11.03
2023-02-18T15:50:04.800Z,10.98
2023-02-18T15:52:40.078Z,10.82
2023-02-18T15:55:12.610Z,10.92
2023-02-18T15:57:44.240Z,10.90
2023-02-18T16:00:17.366Z,10.89
2023-02-18T16:02:57.056Z,10.87
2023-02-18T16:08:36.154Z,10.83
2023-02-18T16:11:07.913Z,10.80
2023-02-18T16:13:37.957Z,10.78
2023-02-18T16:16:07.552Z,10.81
2023-02-18T16:18:40.770Z,10.77
2023-02-18T16:21:27.129Z,10.75
2023-02-18T16:23:59.541Z,10.72
2023-02-18T16:26:33.918Z,10.51
2023-02-18T16:29:06.676Z,10.67
2023-02-18T16:31:35.175Z,10.56
2023-02-18T16:34:03.369Z,10.53
2023-02-18T16:36:31.840Z,10.53
2023-02-18T16:39:02.089Z,10.46
2023-02-18T16:41:30.824Z,10.43
2023-02-18T16:43:59.021Z,10.41
2023-02-18T16:46:27.860Z,10.36
2023-02-18T16:48:58.499Z,10.39
2023-02-18T16:51:32.629Z,10.38
2023-02-18T16:54:02.490Z,10.40
2023-02-18T16:56:33.430Z,10.35
2023-02-18T16:59:01.580Z,10.28
2023-02-18T17:01:32.243Z,10.25
2023-02-18T17:04:02.150Z,10.25
2023-02-18T17:06:31.777Z,10.25
2023-02-18T17:09:00.025Z,10.18
2023-02-18T17:11:31.558Z,10.19
2023-02-18T17:14:05.060Z,10.16
2023-02-18T17:16:33.720Z,10.17
2023-02-18T17:19:03.989Z,10.15
2023-02-18T17:21:32.182Z,10.15
2023-02-18T17:24:00.643Z,10.11
2023-02-18T17:26:32.181Z,9.98
2023-02-18T17:29:01.654Z,10.03
2023-02-18T17:31:39.132Z,10.03
2023-02-18T17:34:09.645Z,9.98
2023-02-18T17:36:39.728Z,9.96
2023-02-18T17:39:13.663Z,9.99
2023-02-18T17:41:44.492Z,9.93
2023-02-18T17:44:16.497Z,9.91
2023-02-18T17:46:45.217Z,9.93
2023-02-18T17:49:13.946Z,9.92
2023-02-18T17:51:42.331Z,9.89
2023-02-18T17:54:13.767Z,9.84
2023-02-18T17:56:44.525Z,9.85
2023-02-18T17:59:12.804Z,9.79
2023-02-18T18:01:42.355Z,9.72
2023-02-18T18:04:15.233Z,9.65
2023-02-18T18:06:45.771Z,9.53
2023-02-18T18:09:14.091Z,9.41
2023-02-18T18:11:42.528Z,9.35
2023-02-18T18:14:14.502Z,9.33
2023-02-18T18:16:43.018Z,9.29
2023-02-18T18:19:11.157Z,9.29
2023-02-18T18:21:39.839Z,9.27
2023-02-18T18:24:08.291Z,9.22
2023-02-18T18:26:37.159Z,9.15
2023-02-18T18:29:05.357Z,9.11
2023-02-18T18:31:36.296Z,9.09
2023-02-18T18:34:04.946Z,9.06
2023-02-18T18:36:33.052Z,9.00
2023-02-18T18:39:01.272Z,8.99
2023-02-18T18:41:31.719Z,8.96
2023-02-18T18:44:00.008Z,8.98
2023-02-18T18:46:28.121Z,9.06
2023-02-18T18:48:57.991Z,9.05
2023-02-18T18:51:32.187Z,9.03
2023-02-18T18:54:00.445Z,9.06
2023-02-18T18:56:28.597Z,9.06
2023-02-18T18:58:56.958Z,9.04
2023-02-18T19:01:27.269Z,9.04
2023-02-18T19:03:57.446Z,9.04
2023-02-18T19:06:27.889Z,9.07
2023-02-18T19:08:56.852Z,9.02
2023-02-18T19:11:27.966Z,9.06
2023-02-18T19:13:56.725Z,9.10
2023-02-18T19:16:32.622Z,9.07
2023-02-18T19:19:02.006Z,9.07
2023-02-18T19:21:31.740Z,9.11
2023-02-18T19:24:00.480Z,9.08
2023-02-18T19:26:29.244Z,9.03
2023-02-18T19:28:57.852Z,8.99
2023-02-18T19:31:26.197Z,8.95
2023-02-18T19:33:57.169Z,8.97
2023-02-18T19:36:26.634Z,8.96
2023-02-18T19:38:54.959Z,8.93
2023-02-18T19:41:23.085Z,8.94
2023-02-18T19:43:52.786Z,8.87
2023-02-18T19:46:21.043Z,8.93
2023-02-18T19:48:55.673Z,8.96
2023-02-18T19:51:24.831Z,8.94
2023-02-18T19:53:56.985Z,8.99
2023-02-18T19:56:25.588Z,8.98
2023-02-18T19:58:56.569Z,8.97
2023-02-18T20:01:25.241Z,9.03
2023-02-18T20:03:53.789Z,9.02
2023-02-18T20:06:22.866Z,9.00
2023-02-18T20:08:55.188Z,8.99
2023-02-18T20:11:25.143Z,8.96
2023-02-18T20:13:53.281Z,8.95
2023-02-18T20:16:21.342Z,8.97
2023-02-18T20:18:49.819Z,8.93
2023-02-18T20:21:17.923Z,8.91
2023-02-18T20:23:45.970Z,8.89
2023-02-18T20:26:15.046Z,8.87
2023-02-18T20:28:45.027Z,8.93
2023-02-18T20:31:14.557Z,8.91
2023-02-18T20:33:43.360Z,8.87
2023-02-18T20:36:12.726Z,8.86
2023-02-18T20:38:43.947Z,8.89
2023-02-18T20:41:17.907Z,8.97
2023-02-18T20:43:50.415Z,8.97
2023-02-18T20:46:27.516Z,9.00
2023-02-18T20:48:58.520Z,8.99
2023-02-18T20:51:27.776Z,8.94
2023-02-18T20:53:56.072Z,8.96
2023-02-18T20:56:26.695Z,8.97
2023-02-18T20:58:56.631Z,8.95
2023-02-18T21:01:25.346Z,8.93
2023-02-18T21:03:53.708Z,8.86
2023-02-18T21:09:35.232Z,8.88
2023-02-18T21:12:03.339Z,8.92
2023-02-18T21:14:31.467Z,8.95
2023-02-18T21:16:59.861Z,8.91
2023-02-18T21:19:30.490Z,8.95
2023-02-18T21:22:01.379Z,8.94
2023-02-18T21:24:29.472Z,8.94
2023-02-18T21:27:02.031Z,8.93
2023-02-18T21:32:18.290Z,8.95
2023-02-18T21:34:46.464Z,9.03
2023-02-18T21:37:14.480Z,9.03
2023-02-18T21:42:34.948Z,9.02
2023-02-18T21:45:04.277Z,9.04
2023-02-18T21:47:32.824Z,9.03
2023-02-18T21:50:00.865Z,9.01
2023-02-18T21:52:32.390Z,9.03
2023-02-18T21:55:03.892Z,9.07
2023-02-18T21:57:32.285Z,9.02
2023-02-18T22:00:14.738Z,8.98
2023-02-18T22:02:47.741Z,8.97
2023-02-18T22:05:15.931Z,9.02
2023-02-18T22:07:44.082Z,9.01
2023-02-18T22:10:15.003Z,9.03
2023-02-18T22:12:48.310Z,9.03
2023-02-18T22:15:18.073Z,9.05
2023-02-18T22:17:46.382Z,9.03
2023-02-18T22:20:14.564Z,9.02
2023-02-18T22:22:42.917Z,9.07
2023-02-18T22:25:11.107Z,9.02
2023-02-18T22:27:39.656Z,9.06
2023-02-18T22:30:11.242Z,9.08
2023-02-18T22:32:40.847Z,9.08
2023-02-18T22:35:09.327Z,9.04
2023-02-18T22:37:39.670Z,9.04
2023-02-18T22:40:11.176Z,9.06
2023-02-18T22:42:41.902Z,9.06
2023-02-18T22:45:10.473Z,9.02
2023-02-18T22:47:40.078Z,9.01
2023-02-18T22:50:09.589Z,9.03
2023-02-18T22:52:37.983Z,8.98
2023-02-18T22:55:07.222Z,9.09
2023-02-18T22:57:35.411Z,9.05
2023-02-18T23:00:05.923Z,9.05
2023-02-18T23:02:34.337Z,9.02
2023-02-18T23:05:04.080Z,9.00
2023-02-18T23:07:33.392Z,8.98
2023-02-18T23:10:01.690Z,9.01
2023-02-18T23:12:29.735Z,8.99
2023-02-18T23:14:57.895Z,8.95
2023-02-18T23:17:26.041Z,9.00
2023-02-18T23:19:54.907Z,8.92
2023-02-18T23:22:30.369Z,8.92
2023-02-18T23:25:01.839Z,8.91
2023-02-18T23:27:30.234Z,8.87
2023-02-18T23:29:58.650Z,8.87
2023-02-18T23:32:27.829Z,8.82
2023-02-18T23:34:56.202Z,8.84
2023-02-18T23:37:44.418Z,8.83
2023-02-18T23:40:16.766Z,8.81
2023-02-18T23:42:47.984Z,8.81
2023-02-18T23:45:16.207Z,8.79
2023-02-18T23:47:44.267Z,8.77
2023-02-18T23:50:15.923Z,8.69
2023-02-18T23:52:44.099Z,8.65
2023-02-18T23:55:13.896Z,8.64
2023-02-18T23:57:41.914Z,8.64
